createdAt,value
2022-08-28T00:00:00.000Z,19.5
2022-08-28T00:15:00.000Z,19.5
2022-08-28T00:30:00.000Z,19.46
2022-08-28T00:45:00.000Z,19.4
2022-08-28T01:00:00.000Z,19.45
2022-08-28T01:30:00.000Z,19.95
2022-08-28T01:30:00.000Z,20.01
2022-08-28T01:45:00.000Z,19.91
2022-08-28T02:00:00.000Z,19.94
2022-08-28T02:15:00.000Z,19.93
2022-08-28T02:30:00.000Z,19.89
2022-08-28T02:45:00.000Z,20
2022-08-28T03:00:00.000Z,20.14
2022-08-28T03:15:00.000Z,20.04
2022-08-28T03:30:00.000Z,19.97
2022-08-28T03:45:00.000Z,20.03
2022-08-28T04:00:00.000Z,20.02
2022-08-28T04:15:00.000Z,19.97
2022-08-28T04:30:00.000Z,19.98
2022-08-28T04:45:00.000Z,20.09
2022-08-28T05:00:00.000Z,20.19
2022-08-28T05:15:00.000Z,20.31
2022-08-28T05:30:00.000Z,20.37
2022-08-28T05:45:00.000Z,20.42
2022-08-28T06:00:00.000Z,20.42
2022-08-28T06:15:00.000Z,20.51
2022-08-28T06:30:00.000Z,20.6
2022-08-28T06:45:00.000Z,20.68
2022-08-28T07:00:00.000Z,20.85
2022-08-28T07:15:00.000Z,20.81
2022-08-28T07:30:00.000Z,20.83
2022-08-28T07:45:00.000Z,21.03
2022-08-28T08:00:00.000Z,21.28
2022-08-28T08:15:00.000Z,21.33
2022-08-28T08:30:00.000Z,21.55
2022-08-28T08:45:00.000Z,21.81
2022-08-28T09:00:00.000Z,22.07
2022-08-28T09:15:00.000Z,22.17
2022-08-28T09:30:00.000Z,22.96
2022-08-28T09:45:00.000Z,23.43
2022-08-28T10:00:00.000Z,23.64
2022-08-28T10:15:00.000Z,24.45
2022-08-28T10:30:00.000Z,25.28
2022-08-28T10:45:00.000Z,26.04
2022-08-28T11:00:00.000Z,26.64
2022-08-28T11:15:00.000Z,26.22
2022-08-28T11:30:00.000Z,23.81
2022-08-28T11:45:00.000Z,24.71
2022-08-28T12:00:00.000Z,23.55
2022-08-28T12:15:00.000Z,22.91
2022-08-28T12:30:00.000Z,22.55
2022-08-28T12:45:00.000Z,23
2022-08-28T13:00:00.000Z,23.48
2022-08-28T13:15:00.000Z,23.15
2022-08-28T13:30:00.000Z,22.64
2022-08-28T13:45:00.000Z,23.01
2022-08-28T14:00:00.000Z,23.58
2022-08-28T14:15:00.000Z,23.81
2022-08-28T14:30:00.000Z,25.24
2022-08-28T14:45:00.000Z,25.52
2022-08-28T15:00:00.000Z,24.2
2022-08-28T15:15:00.000Z,23.05
2022-08-28T15:30:00.000Z,23.2
2022-08-28T15:45:00.000Z,22.86
2022-08-28T16:00:00.000Z,22.55
2022-08-28T16:15:00.000Z,22.62
2022-08-28T16:30:00.000Z,22.32
2022-08-28T16:45:00.000Z,22.48
2022-08-28T17:00:00.000Z,22.5
2022-08-28T17:15:00.000Z,21.27
2022-08-28T17:30:00.000Z,20.38
2022-08-28T17:45:00.000Z,20.33
2022-08-28T18:00:00.000Z,20.09
2022-08-28T18:15:00.000Z,20.05
2022-08-28T18:30:00.000Z,19.94
2022-08-28T18:45:00.000Z,19.82
2022-08-28T19:00:00.000Z,20.05
2022-08-28T19:15:00.000Z,20.3
2022-08-28T19:30:00.000Z,20.04
2022-08-28T19:45:00.000Z,19.86
2022-08-28T20:00:00.000Z,19.82
2022-08-28T20:15:00.000Z,19.77
2022-08-28T20:30:00.000Z,19.51
2022-08-28T20:45:00.000Z,19.34
2022-08-28T21:00:00.000Z,19.1
2022-08-28T21:15:00.000Z,18.99
2022-08-28T21:30:00.000Z,18.82
2022-08-28T21:45:00.000Z,18.85
2022-08-28T22:00:00.000Z,18.93
2022-08-28T22:15:00.000Z,18.9
2022-08-28T22:30:00.000Z,18.74
2022-08-28T22:45:00.000Z,18.54
2022-08-28T23:00:00.000Z,18.25
2022-08-28T23:15:00.000Z,18.03
2022-08-28T23:30:00.000Z,17.8
2022-08-28T23:45:00.000Z,17.74
